sensor_id;sensor_type;location;lat;lon;timestamp;P1;durP1;ratioP1;P2;durP2;ratioP2
53273;SDS011;39163;52.696;6.758;2024-02-26T00:00:39;18.05;;;12.43;;
53273;SDS011;39163;52.696;6.758;2024-02-26T00:03:06;18.23;;;11.45;;
53273;SDS011;39163;52.696;6.758;2024-02-26T00:05:33;16.50;;;11.93;;
53273;SDS011;39163;52.696;6.758;2024-02-26T00:08:00;20.13;;;11.75;;
53273;SDS011;39163;52.696;6.758;2024-02-26T00:10:27;16.73;;;10.48;;
53273;SDS011;39163;52.696;6.758;2024-02-26T00:12:54;19.17;;;11.80;;
53273;SDS011;39163;52.696;6.758;2024-02-26T00:15:21;16.73;;;11.30;;
53273;SDS011;39163;52.696;6.758;2024-02-26T00:17:49;18.85;;;11.32;;
53273;SDS011;39163;52.696;6.758;2024-02-26T00:20:16;23.30;;;12.35;;
53273;SDS011;39163;52.696;6.758;2024-02-26T00:22:43;22.00;;;11.43;;
53273;SDS011;39163;52.696;6.758;2024-02-26T00:25:10;14.93;;;10.40;;
53273;SDS011;39163;52.696;6.758;2024-02-26T00:27:37;17.48;;;11.15;;
53273;SDS011;39163;52.696;6.758;2024-02-26T00:30:06;20.15;;;11.70;;
53273;SDS011;39163;52.696;6.758;2024-02-26T00:32:33;18.10;;;11.30;;
53273;SDS011;39163;52.696;6.758;2024-02-26T00:35:02;19.42;;;11.80;;
53273;SDS011;39163;52.696;6.758;2024-02-26T00:37:29;21.55;;;12.07;;
53273;SDS011;39163;52.696;6.758;2024-02-26T00:39:56;18.98;;;11.85;;
53273;SDS011;39163;52.696;6.758;2024-02-26T00:42:22;19.42;;;12.02;;
53273;SDS011;39163;52.696;6.758;2024-02-26T00:44:49;20.63;;;11.90;;
53273;SDS011;39163;52.696;6.758;2024-02-26T00:47:16;20.35;;;12.35;;
53273;SDS011;39163;52.696;6.758;2024-02-26T00:49:44;20.00;;;12.80;;
53273;SDS011;39163;52.696;6.758;2024-02-26T00:52:12;20.35;;;12.48;;
53273;SDS011;39163;52.696;6.758;2024-02-26T00:54:39;20.92;;;12.73;;
53273;SDS011;39163;52.696;6.758;2024-02-26T00:57:06;21.60;;;13.68;;
53273;SDS011;39163;52.696;6.758;2024-02-26T00:59:33;20.55;;;13.13;;
53273;SDS011;39163;52.696;6.758;2024-02-26T01:02:00;20.77;;;12.77;;
53273;SDS011;39163;52.696;6.758;2024-02-26T01:04:27;19.23;;;12.90;;
53273;SDS011;39163;52.696;6.758;2024-02-26T01:06:53;19.40;;;12.77;;
53273;SDS011;39163;52.696;6.758;2024-02-26T01:09:21;23.70;;;13.20;;
53273;SDS011;39163;52.696;6.758;2024-02-26T01:11:48;21.30;;;13.90;;
53273;SDS011;39163;52.696;6.758;2024-02-26T01:14:15;20.90;;;13.88;;
53273;SDS011;39163;52.696;6.758;2024-02-26T01:16:42;24.63;;;13.07;;
53273;SDS011;39163;52.696;6.758;2024-02-26T01:19:09;21.08;;;13.52;;
53273;SDS011;39163;52.696;6.758;2024-02-26T01:21:36;23.25;;;14.18;;
53273;SDS011;39163;52.696;6.758;2024-02-26T01:24:03;21.65;;;14.23;;
53273;SDS011;39163;52.696;6.758;2024-02-26T01:26:31;23.70;;;13.90;;
53273;SDS011;39163;52.696;6.758;2024-02-26T01:28:58;21.02;;;13.35;;
53273;SDS011;39163;52.696;6.758;2024-02-26T01:31:25;21.45;;;13.18;;
53273;SDS011;39163;52.696;6.758;2024-02-26T01:33:52;21.30;;;13.82;;
53273;SDS011;39163;52.696;6.758;2024-02-26T01:36:19;21.23;;;13.07;;
53273;SDS011;39163;52.696;6.758;2024-02-26T01:38:46;22.90;;;12.80;;
53273;SDS011;39163;52.696;6.758;2024-02-26T01:41:13;21.73;;;14.02;;
53273;SDS011;39163;52.696;6.758;2024-02-26T01:43:42;21.23;;;13.70;;
53273;SDS011;39163;52.696;6.758;2024-02-26T01:46:09;21.50;;;14.32;;
53273;SDS011;39163;52.696;6.758;2024-02-26T01:48:39;22.85;;;13.40;;
53273;SDS011;39163;52.696;6.758;2024-02-26T01:51:07;20.15;;;13.48;;
53273;SDS011;39163;52.696;6.758;2024-02-26T01:53:34;19.92;;;13.43;;
53273;SDS011;39163;52.696;6.758;2024-02-26T01:56:01;22.17;;;14.23;;
53273;SDS011;39163;52.696;6.758;2024-02-26T01:58:29;20.55;;;13.55;;
53273;SDS011;39163;52.696;6.758;2024-02-26T02:00:58;22.45;;;13.50;;
53273;SDS011;39163;52.696;6.758;2024-02-26T02:03:25;22.17;;;14.18;;
53273;SDS011;39163;52.696;6.758;2024-02-26T02:05:52;24.95;;;14.20;;
53273;SDS011;39163;52.696;6.758;2024-02-26T02:08:19;22.33;;;14.65;;
53273;SDS011;39163;52.696;6.758;2024-02-26T02:10:48;25.38;;;15.98;;
53273;SDS011;39163;52.696;6.758;2024-02-26T02:13:15;23.40;;;15.70;;
53273;SDS011;39163;52.696;6.758;2024-02-26T02:15:42;23.42;;;14.60;;
53273;SDS011;39163;52.696;6.758;2024-02-26T02:18:10;23.63;;;14.75;;
53273;SDS011;39163;52.696;6.758;2024-02-26T02:20:39;22.77;;;14.98;;
53273;SDS011;39163;52.696;6.758;2024-02-26T02:23:06;24.98;;;15.07;;
53273;SDS011;39163;52.696;6.758;2024-02-26T02:25:33;25.15;;;16.17;;
53273;SDS011;39163;52.696;6.758;2024-02-26T02:28:00;24.48;;;15.10;;
53273;SDS011;39163;52.696;6.758;2024-02-26T02:30:28;26.65;;;16.17;;
53273;SDS011;39163;52.696;6.758;2024-02-26T02:32:55;24.20;;;15.40;;
53273;SDS011;39163;52.696;6.758;2024-02-26T02:35:24;23.70;;;16.00;;
53273;SDS011;39163;52.696;6.758;2024-02-26T02:37:53;24.02;;;14.85;;
53273;SDS011;39163;52.696;6.758;2024-02-26T02:40:21;25.25;;;15.98;;
53273;SDS011;39163;52.696;6.758;2024-02-26T02:42:48;27.35;;;16.98;;
53273;SDS011;39163;52.696;6.758;2024-02-26T02:45:14;25.30;;;16.42;;
53273;SDS011;39163;52.696;6.758;2024-02-26T02:47:42;25.15;;;14.88;;
53273;SDS011;39163;52.696;6.758;2024-02-26T02:50:09;28.55;;;16.42;;
53273;SDS011;39163;52.696;6.758;2024-02-26T02:52:36;29.23;;;16.83;;
53273;SDS011;39163;52.696;6.758;2024-02-26T02:55:05;26.50;;;15.18;;
53273;SDS011;39163;52.696;6.758;2024-02-26T02:57:32;26.45;;;16.60;;
53273;SDS011;39163;52.696;6.758;2024-02-26T02:59:59;26.35;;;15.88;;
53273;SDS011;39163;52.696;6.758;2024-02-26T03:02:28;27.52;;;16.05;;
53273;SDS011;39163;52.696;6.758;2024-02-26T03:04:55;28.35;;;15.93;;
53273;SDS011;39163;52.696;6.758;2024-02-26T03:07:22;28.25;;;16.38;;
53273;SDS011;39163;52.696;6.758;2024-02-26T03:09:49;34.70;;;16.75;;
53273;SDS011;39163;52.696;6.758;2024-02-26T03:12:18;28.45;;;17.05;;
53273;SDS011;39163;52.696;6.758;2024-02-26T03:14:45;30.15;;;17.35;;
53273;SDS011;39163;52.696;6.758;2024-02-26T03:17:11;30.70;;;16.35;;
53273;SDS011;39163;52.696;6.758;2024-02-26T03:19:39;31.20;;;18.23;;
53273;SDS011;39163;52.696;6.758;2024-02-26T03:22:06;32.17;;;17.40;;
53273;SDS011;39163;52.696;6.758;2024-02-26T03:24:33;32.60;;;17.75;;
53273;SDS011;39163;52.696;6.758;2024-02-26T03:27:00;30.05;;;17.55;;
53273;SDS011;39163;52.696;6.758;2024-02-26T03:29:28;33.17;;;16.48;;
53273;SDS011;39163;52.696;6.758;2024-02-26T03:31:56;36.15;;;18.63;;
53273;SDS011;39163;52.696;6.758;2024-02-26T03:34:22;35.58;;;18.27;;
53273;SDS011;39163;52.696;6.758;2024-02-26T03:36:50;35.60;;;19.35;;
53273;SDS011;39163;52.696;6.758;2024-02-26T03:39:17;35.70;;;18.20;;
53273;SDS011;39163;52.696;6.758;2024-02-26T03:41:44;33.47;;;17.73;;
53273;SDS011;39163;52.696;6.758;2024-02-26T03:44:11;36.92;;;17.92;;
53273;SDS011;39163;52.696;6.758;2024-02-26T03:46:39;40.53;;;19.00;;
53273;SDS011;39163;52.696;6.758;2024-02-26T03:49:07;36.13;;;18.13;;
53273;SDS011;39163;52.696;6.758;2024-02-26T03:51:34;35.80;;;17.55;;
53273;SDS011;39163;52.696;6.758;2024-02-26T03:54:01;36.88;;;17.75;;
53273;SDS011;39163;52.696;6.758;2024-02-26T03:56:28;35.55;;;18.60;;
53273;SDS011;39163;52.696;6.758;2024-02-26T03:58:55;35.72;;;17.10;;
53273;SDS011;39163;52.696;6.758;2024-02-26T04:01:24;37.67;;;17.38;;
53273;SDS011;39163;52.696;6.758;2024-02-26T04:03:52;37.80;;;18.20;;
53273;SDS011;39163;52.696;6.758;2024-02-26T04:06:19;37.75;;;18.85;;
53273;SDS011;39163;52.696;6.758;2024-02-26T04:08:47;40.85;;;18.02;;
53273;SDS011;39163;52.696;6.758;2024-02-26T04:11:14;39.47;;;18.77;;
53273;SDS011;39163;52.696;6.758;2024-02-26T04:13:43;38.72;;;18.90;;
53273;SDS011;39163;52.696;6.758;2024-02-26T04:16:11;40.22;;;20.33;;
53273;SDS011;39163;52.696;6.758;2024-02-26T04:18:38;46.00;;;21.30;;
53273;SDS011;39163;52.696;6.758;2024-02-26T04:21:06;45.15;;;21.90;;
53273;SDS011;39163;52.696;6.758;2024-02-26T04:23:33;49.88;;;22.60;;
53273;SDS011;39163;52.696;6.758;2024-02-26T04:26:00;56.38;;;25.90;;
53273;SDS011;39163;52.696;6.758;2024-02-26T04:28:27;51.42;;;23.60;;
53273;SDS011;39163;52.696;6.758;2024-02-26T04:30:54;58.80;;;24.70;;
53273;SDS011;39163;52.696;6.758;2024-02-26T04:33:21;60.90;;;26.15;;
53273;SDS011;39163;52.696;6.758;2024-02-26T04:35:48;59.65;;;26.23;;
53273;SDS011;39163;52.696;6.758;2024-02-26T04:38:16;62.70;;;26.63;;
53273;SDS011;39163;52.696;6.758;2024-02-26T04:40:43;57.05;;;25.65;;
53273;SDS011;39163;52.696;6.758;2024-02-26T04:43:10;63.13;;;27.33;;
53273;SDS011;39163;52.696;6.758;2024-02-26T04:45:38;63.80;;;24.77;;
53273;SDS011;39163;52.696;6.758;2024-02-26T04:48:05;68.18;;;25.65;;
53273;SDS011;39163;52.696;6.758;2024-02-26T04:50:33;64.90;;;27.65;;
53273;SDS011;39163;52.696;6.758;2024-02-26T04:53:00;61.83;;;26.92;;
53273;SDS011;39163;52.696;6.758;2024-02-26T04:55:28;64.55;;;26.50;;
53273;SDS011;39163;52.696;6.758;2024-02-26T04:57:55;61.97;;;27.48;;
53273;SDS011;39163;52.696;6.758;2024-02-26T05:00:22;66.05;;;28.17;;
53273;SDS011;39163;52.696;6.758;2024-02-26T05:02:49;60.63;;;25.67;;
53273;SDS011;39163;52.696;6.758;2024-02-26T05:05:16;61.55;;;26.23;;
53273;SDS011;39163;52.696;6.758;2024-02-26T05:07:43;63.58;;;26.13;;
53273;SDS011;39163;52.696;6.758;2024-02-26T05:10:10;63.70;;;27.35;;
53273;SDS011;39163;52.696;6.758;2024-02-26T05:12:38;63.45;;;26.80;;
53273;SDS011;39163;52.696;6.758;2024-02-26T05:15:08;64.47;;;25.58;;
53273;SDS011;39163;52.696;6.758;2024-02-26T05:17:35;60.38;;;26.63;;
53273;SDS011;39163;52.696;6.758;2024-02-26T05:20:02;60.70;;;25.08;;
53273;SDS011;39163;52.696;6.758;2024-02-26T05:22:33;56.50;;;25.45;;
53273;SDS011;39163;52.696;6.758;2024-02-26T05:24:59;66.88;;;26.70;;
53273;SDS011;39163;52.696;6.758;2024-02-26T05:27:27;61.70;;;26.63;;
53273;SDS011;39163;52.696;6.758;2024-02-26T05:29:55;60.08;;;24.70;;
53273;SDS011;39163;52.696;6.758;2024-02-26T05:32:22;55.95;;;24.73;;
53273;SDS011;39163;52.696;6.758;2024-02-26T05:34:49;57.53;;;24.92;;
53273;SDS011;39163;52.696;6.758;2024-02-26T05:37:16;59.00;;;25.15;;
53273;SDS011;39163;52.696;6.758;2024-02-26T05:39:42;54.33;;;24.15;;
53273;SDS011;39163;52.696;6.758;2024-02-26T05:42:09;61.00;;;25.40;;
53273;SDS011;39163;52.696;6.758;2024-02-26T05:44:37;61.10;;;25.05;;
53273;SDS011;39163;52.696;6.758;2024-02-26T05:47:05;55.53;;;24.58;;
53273;SDS011;39163;52.696;6.758;2024-02-26T05:49:32;55.22;;;24.77;;
53273;SDS011;39163;52.696;6.758;2024-02-26T05:51:59;48.65;;;21.63;;
53273;SDS011;39163;52.696;6.758;2024-02-26T05:54:26;49.00;;;21.95;;
53273;SDS011;39163;52.696;6.758;2024-02-26T05:56:53;45.25;;;21.45;;
53273;SDS011;39163;52.696;6.758;2024-02-26T05:59:20;45.38;;;19.98;;
53273;SDS011;39163;52.696;6.758;2024-02-26T06:01:47;44.20;;;19.75;;
53273;SDS011;39163;52.696;6.758;2024-02-26T06:04:15;43.65;;;19.95;;
53273;SDS011;39163;52.696;6.758;2024-02-26T06:06:43;42.20;;;18.75;;
53273;SDS011;39163;52.696;6.758;2024-02-26T06:09:10;42.22;;;18.35;;
53273;SDS011;39163;52.696;6.758;2024-02-26T06:11:37;33.42;;;16.92;;
53273;SDS011;39163;52.696;6.758;2024-02-26T06:14:04;31.77;;;15.70;;
53273;SDS011;39163;52.696;6.758;2024-02-26T06:16:32;32.58;;;16.42;;
53273;SDS011;39163;52.696;6.758;2024-02-26T06:19:00;31.30;;;15.35;;
53273;SDS011;39163;52.696;6.758;2024-02-26T06:21:28;28.63;;;14.73;;
53273;SDS011;39163;52.696;6.758;2024-02-26T06:23:55;28.10;;;15.23;;
53273;SDS011;39163;52.696;6.758;2024-02-26T06:26:22;25.85;;;13.98;;
53273;SDS011;39163;52.696;6.758;2024-02-26T06:28:49;29.88;;;14.68;;
53273;SDS011;39163;52.696;6.758;2024-02-26T06:31:17;28.00;;;13.77;;
53273;SDS011;39163;52.696;6.758;2024-02-26T06:33:44;29.58;;;14.60;;
53273;SDS011;39163;52.696;6.758;2024-02-26T06:36:11;24.05;;;13.27;;
53273;SDS011;39163;52.696;6.758;2024-02-26T06:38:39;25.05;;;13.23;;
53273;SDS011;39163;52.696;6.758;2024-02-26T06:41:06;25.05;;;13.77;;
53273;SDS011;39163;52.696;6.758;2024-02-26T06:43:33;22.63;;;11.85;;
53273;SDS011;39163;52.696;6.758;2024-02-26T06:46:00;25.35;;;12.82;;
53273;SDS011;39163;52.696;6.758;2024-02-26T06:48:27;25.05;;;13.02;;
53273;SDS011;39163;52.696;6.758;2024-02-26T06:50:54;22.35;;;11.98;;
53273;SDS011;39163;52.696;6.758;2024-02-26T06:53:21;24.98;;;13.02;;
53273;SDS011;39163;52.696;6.758;2024-02-26T06:55:49;19.83;;;11.18;;
53273;SDS011;39163;52.696;6.758;2024-02-26T06:58:16;21.17;;;11.98;;
53273;SDS011;39163;52.696;6.758;2024-02-26T07:00:43;20.08;;;11.30;;
53273;SDS011;39163;52.696;6.758;2024-02-26T07:03:11;19.45;;;11.95;;
53273;SDS011;39163;52.696;6.758;2024-02-26T07:05:39;20.77;;;11.77;;
53273;SDS011;39163;52.696;6.758;2024-02-26T07:08:06;21.65;;;12.35;;
53273;SDS011;39163;52.696;6.758;2024-02-26T07:10:33;19.80;;;11.25;;
53273;SDS011;39163;52.696;6.758;2024-02-26T07:13:01;18.30;;;10.98;;
53273;SDS011;39163;52.696;6.758;2024-02-26T07:15:28;17.05;;;11.07;;
53273;SDS011;39163;52.696;6.758;2024-02-26T07:17:55;18.38;;;10.82;;
53273;SDS011;39163;52.696;6.758;2024-02-26T07:20:27;20.13;;;11.27;;
53273;SDS011;39163;52.696;6.758;2024-02-26T07:22:55;22.85;;;12.27;;
53273;SDS011;39163;52.696;6.758;2024-02-26T07:25:22;19.17;;;11.00;;
53273;SDS011;39163;52.696;6.758;2024-02-26T07:27:49;22.67;;;11.23;;
53273;SDS011;39163;52.696;6.758;2024-02-26T07:30:17;17.40;;;10.32;;
53273;SDS011;39163;52.696;6.758;2024-02-26T07:32:44;18.10;;;10.57;;
53273;SDS011;39163;52.696;6.758;2024-02-26T07:35:11;18.70;;;10.85;;
53273;SDS011;39163;52.696;6.758;2024-02-26T07:37:38;16.30;;;9.27;;
53273;SDS011;39163;52.696;6.758;2024-02-26T07:40:06;21.45;;;11.43;;
53273;SDS011;39163;52.696;6.758;2024-02-26T07:42:34;17.00;;;10.00;;
53273;SDS011;39163;52.696;6.758;2024-02-26T07:45:01;17.38;;;8.95;;
53273;SDS011;39163;52.696;6.758;2024-02-26T07:47:30;18.10;;;9.80;;
53273;SDS011;39163;52.696;6.758;2024-02-26T07:49:59;16.75;;;9.43;;
53273;SDS011;39163;52.696;6.758;2024-02-26T07:52:26;15.27;;;8.75;;
53273;SDS011;39163;52.696;6.758;2024-02-26T07:54:53;13.23;;;8.70;;
53273;SDS011;39163;52.696;6.758;2024-02-26T07:57:20;16.50;;;9.98;;
53273;SDS011;39163;52.696;6.758;2024-02-26T07:59:47;16.02;;;8.75;;
53273;SDS011;39163;52.696;6.758;2024-02-26T08:02:14;14.63;;;7.85;;
53273;SDS011;39163;52.696;6.758;2024-02-26T08:04:43;16.95;;;8.85;;
53273;SDS011;39163;52.696;6.758;2024-02-26T08:07:10;15.90;;;8.43;;
53273;SDS011;39163;52.696;6.758;2024-02-26T08:09:37;12.52;;;8.00;;
53273;SDS011;39163;52.696;6.758;2024-02-26T08:12:04;14.43;;;9.48;;
53273;SDS011;39163;52.696;6.758;2024-02-26T08:14:32;13.75;;;7.95;;
53273;SDS011;39163;52.696;6.758;2024-02-26T08:16:59;16.33;;;8.23;;
53273;SDS011;39163;52.696;6.758;2024-02-26T08:19:26;15.45;;;8.35;;
53273;SDS011;39163;52.696;6.758;2024-02-26T08:21:54;13.90;;;7.68;;
53273;SDS011;39163;52.696;6.758;2024-02-26T08:24:21;12.13;;;7.80;;
53273;SDS011;39163;52.696;6.758;2024-02-26T08:26:49;16.42;;;8.70;;
53273;SDS011;39163;52.696;6.758;2024-02-26T08:29:16;12.70;;;7.60;;
53273;SDS011;39163;52.696;6.758;2024-02-26T08:31:43;14.27;;;7.78;;
53273;SDS011;39163;52.696;6.758;2024-02-26T08:34:10;10.50;;;6.35;;
53273;SDS011;39163;52.696;6.758;2024-02-26T08:36:37;15.20;;;7.10;;
53273;SDS011;39163;52.696;6.758;2024-02-26T08:39:05;8.63;;;5.55;;
53273;SDS011;39163;52.696;6.758;2024-02-26T08:41:32;11.43;;;6.25;;
53273;SDS011;39163;52.696;6.758;2024-02-26T08:43:59;10.35;;;5.97;;
53273;SDS011;39163;52.696;6.758;2024-02-26T08:46:26;12.48;;;7.35;;
53273;SDS011;39163;52.696;6.758;2024-02-26T08:48:53;9.52;;;5.93;;
53273;SDS011;39163;52.696;6.758;2024-02-26T08:51:20;11.23;;;6.53;;
53273;SDS011;39163;52.696;6.758;2024-02-26T08:53:47;10.98;;;6.45;;
53273;SDS011;39163;52.696;6.758;2024-02-26T08:56:16;11.38;;;6.10;;
53273;SDS011;39163;52.696;6.758;2024-02-26T08:58:43;9.57;;;6.03;;
53273;SDS011;39163;52.696;6.758;2024-02-26T09:01:11;9.35;;;6.20;;
53273;SDS011;39163;52.696;6.758;2024-02-26T09:03:38;11.73;;;6.63;;
53273;SDS011;39163;52.696;6.758;2024-02-26T09:06:05;8.65;;;5.13;;
53273;SDS011;39163;52.696;6.758;2024-02-26T09:08:32;10.20;;;5.95;;
53273;SDS011;39163;52.696;6.758;2024-02-26T09:11:01;10.27;;;6.28;;
53273;SDS011;39163;52.696;6.758;2024-02-26T09:13:29;11.02;;;6.20;;
53273;SDS011;39163;52.696;6.758;2024-02-26T09:15:56;9.07;;;5.63;;
53273;SDS011;39163;52.696;6.758;2024-02-26T09:18:24;12.50;;;5.82;;
53273;SDS011;39163;52.696;6.758;2024-02-26T09:20:50;9.93;;;5.97;;
53273;SDS011;39163;52.696;6.758;2024-02-26T09:23:17;11.38;;;5.30;;
53273;SDS011;39163;52.696;6.758;2024-02-26T09:25:44;8.25;;;5.20;;
53273;SDS011;39163;52.696;6.758;2024-02-26T09:28:11;7.32;;;5.10;;
53273;SDS011;39163;52.696;6.758;2024-02-26T09:30:42;7.97;;;4.90;;
53273;SDS011;39163;52.696;6.758;2024-02-26T09:33:09;8.95;;;5.53;;
53273;SDS011;39163;52.696;6.758;2024-02-26T09:35:36;8.50;;;5.53;;
53273;SDS011;39163;52.696;6.758;2024-02-26T09:38:03;10.95;;;5.32;;
53273;SDS011;39163;52.696;6.758;2024-02-26T09:40:30;9.35;;;5.88;;
53273;SDS011;39163;52.696;6.758;2024-02-26T09:42:59;7.90;;;4.88;;
53273;SDS011;39163;52.696;6.758;2024-02-26T09:45:28;7.05;;;4.72;;
53273;SDS011;39163;52.696;6.758;2024-02-26T09:47:58;9.68;;;5.25;;
53273;SDS011;39163;52.696;6.758;2024-02-26T09:50:26;7.57;;;5.20;;
53273;SDS011;39163;52.696;6.758;2024-02-26T09:52:53;8.40;;;5.35;;
53273;SDS011;39163;52.696;6.758;2024-02-26T09:55:22;7.90;;;5.32;;
53273;SDS011;39163;52.696;6.758;2024-02-26T09:57:50;6.32;;;4.60;;
53273;SDS011;39163;52.696;6.758;2024-02-26T10:00:18;8.48;;;4.93;;
53273;SDS011;39163;52.696;6.758;2024-02-26T10:02:47;7.75;;;5.43;;
53273;SDS011;39163;52.696;6.758;2024-02-26T10:05:16;8.55;;;4.65;;
53273;SDS011;39163;52.696;6.758;2024-02-26T10:07:44;8.55;;;5.22;;
53273;SDS011;39163;52.696;6.758;2024-02-26T10:10:11;7.50;;;5.05;;
53273;SDS011;39163;52.696;6.758;2024-02-26T10:12:39;7.85;;;4.75;;
53273;SDS011;39163;52.696;6.758;2024-02-26T10:15:06;7.65;;;5.13;;
53273;SDS011;39163;52.696;6.758;2024-02-26T10:17:34;7.68;;;5.07;;
53273;SDS011;39163;52.696;6.758;2024-02-26T10:20:10;7.38;;;4.82;;
53273;SDS011;39163;52.696;6.758;2024-02-26T10:22:39;7.32;;;5.18;;
53273;SDS011;39163;52.696;6.758;2024-02-26T10:25:07;7.60;;;5.22;;
53273;SDS011;39163;52.696;6.758;2024-02-26T10:27:35;7.70;;;5.07;;
53273;SDS011;39163;52.696;6.758;2024-02-26T10:30:02;6.45;;;4.85;;
53273;SDS011;39163;52.696;6.758;2024-02-26T10:32:30;7.72;;;5.20;;
53273;SDS011;39163;52.696;6.758;2024-02-26T10:34:57;7.40;;;4.93;;
53273;SDS011;39163;52.696;6.758;2024-02-26T10:37:24;8.05;;;5.32;;
53273;SDS011;39163;52.696;6.758;2024-02-26T10:39:52;7.15;;;4.72;;
53273;SDS011;39163;52.696;6.758;2024-02-26T10:42:19;8.52;;;5.05;;
53273;SDS011;39163;52.696;6.758;2024-02-26T10:44:47;6.85;;;4.45;;
53273;SDS011;39163;52.696;6.758;2024-02-26T10:47:14;7.40;;;5.10;;
53273;SDS011;39163;52.696;6.758;2024-02-26T10:49:45;5.50;;;4.60;;
53273;SDS011;39163;52.696;6.758;2024-02-26T10:52:13;11.43;;;5.85;;
53273;SDS011;39163;52.696;6.758;2024-02-26T10:54:41;6.97;;;4.47;;
53273;SDS011;39163;52.696;6.758;2024-02-26T10:57:12;7.15;;;5.18;;
53273;SDS011;39163;52.696;6.758;2024-02-26T10:59:41;7.70;;;4.97;;
53273;SDS011;39163;52.696;6.758;2024-02-26T11:02:09;8.75;;;4.75;;
53273;SDS011;39163;52.696;6.758;2024-02-26T11:04:38;7.22;;;5.03;;
53273;SDS011;39163;52.696;6.758;2024-02-26T11:07:05;5.43;;;4.15;;
53273;SDS011;39163;52.696;6.758;2024-02-26T11:09:33;6.82;;;4.25;;
53273;SDS011;39163;52.696;6.758;2024-02-26T11:12:02;7.07;;;5.18;;
53273;SDS011;39163;52.696;6.758;2024-02-26T11:14:36;6.53;;;4.38;;
53273;SDS011;39163;52.696;6.758;2024-02-26T11:17:05;6.47;;;5.03;;
53273;SDS011;39163;52.696;6.758;2024-02-26T11:19:35;7.07;;;4.95;;
53273;SDS011;39163;52.696;6.758;2024-02-26T11:22:02;6.05;;;4.70;;
53273;SDS011;39163;52.696;6.758;2024-02-26T11:24:29;6.97;;;5.50;;
53273;SDS011;39163;52.696;6.758;2024-02-26T11:26:57;6.38;;;4.93;;
53273;SDS011;39163;52.696;6.758;2024-02-26T11:29:28;6.97;;;5.13;;
53273;SDS011;39163;52.696;6.758;2024-02-26T11:32:02;7.10;;;5.18;;
53273;SDS011;39163;52.696;6.758;2024-02-26T11:34:29;8.05;;;5.03;;
53273;SDS011;39163;52.696;6.758;2024-02-26T11:36:56;8.90;;;5.20;;
53273;SDS011;39163;52.696;6.758;2024-02-26T11:39:23;7.88;;;5.88;;
53273;SDS011;39163;52.696;6.758;2024-02-26T11:41:52;14.07;;;11.27;;
53273;SDS011;39163;52.696;6.758;2024-02-26T11:44:28;9.45;;;6.45;;
53273;SDS011;39163;52.696;6.758;2024-02-26T11:46:55;8.13;;;5.57;;
53273;SDS011;39163;52.696;6.758;2024-02-26T11:49:31;9.80;;;6.18;;
53273;SDS011;39163;52.696;6.758;2024-02-26T11:51:59;9.10;;;6.80;;
53273;SDS011;39163;52.696;6.758;2024-02-26T11:54:38;10.45;;;7.32;;
53273;SDS011;39163;52.696;6.758;2024-02-26T11:57:19;13.85;;;10.15;;
53273;SDS011;39163;52.696;6.758;2024-02-26T11:59:49;9.88;;;6.15;;
53273;SDS011;39163;52.696;6.758;2024-02-26T12:05:08;9.75;;;7.07;;
53273;SDS011;39163;52.696;6.758;2024-02-26T12:07:37;10.00;;;7.22;;
53273;SDS011;39163;52.696;6.758;2024-02-26T12:10:17;17.42;;;10.48;;
53273;SDS011;39163;52.696;6.758;2024-02-26T12:12:53;18.45;;;11.27;;
53273;SDS011;39163;52.696;6.758;2024-02-26T12:15:22;12.68;;;8.68;;
53273;SDS011;39163;52.696;6.758;2024-02-26T12:17:51;15.07;;;9.48;;
53273;SDS011;39163;52.696;6.758;2024-02-26T12:20:21;44.25;;;22.50;;
53273;SDS011;39163;52.696;6.758;2024-02-26T12:22:49;14.38;;;9.60;;
53273;SDS011;39163;52.696;6.758;2024-02-26T12:25:19;11.25;;;7.30;;
53273;SDS011;39163;52.696;6.758;2024-02-26T12:27:47;19.60;;;11.27;;
53273;SDS011;39163;52.696;6.758;2024-02-26T12:30:14;17.80;;;9.73;;
53273;SDS011;39163;52.696;6.758;2024-02-26T12:32:41;14.93;;;8.98;;
53273;SDS011;39163;52.696;6.758;2024-02-26T12:35:09;26.05;;;13.80;;
53273;SDS011;39163;52.696;6.758;2024-02-26T12:37:37;12.75;;;7.22;;
53273;SDS011;39163;52.696;6.758;2024-02-26T12:40:05;18.33;;;11.88;;
53273;SDS011;39163;52.696;6.758;2024-02-26T12:42:35;11.50;;;6.47;;
53273;SDS011;39163;52.696;6.758;2024-02-26T12:45:05;18.25;;;11.02;;
53273;SDS011;39163;52.696;6.758;2024-02-26T12:47:35;25.90;;;13.57;;
53273;SDS011;39163;52.696;6.758;2024-02-26T12:50:02;20.27;;;10.85;;
53273;SDS011;39163;52.696;6.758;2024-02-26T12:52:30;25.25;;;12.73;;
53273;SDS011;39163;52.696;6.758;2024-02-26T12:55:00;18.65;;;11.90;;
53273;SDS011;39163;52.696;6.758;2024-02-26T12:57:29;13.20;;;9.05;;
53273;SDS011;39163;52.696;6.758;2024-02-26T12:59:56;10.60;;;6.82;;
53273;SDS011;39163;52.696;6.758;2024-02-26T13:02:24;13.25;;;9.95;;
53273;SDS011;39163;52.696;6.758;2024-02-26T13:04:52;11.00;;;8.43;;
53273;SDS011;39163;52.696;6.758;2024-02-26T13:07:20;8.52;;;6.18;;
53273;SDS011;39163;52.696;6.758;2024-02-26T13:09:47;10.40;;;7.07;;
53273;SDS011;39163;52.696;6.758;2024-02-26T13:12:16;10.77;;;7.20;;
53273;SDS011;39163;52.696;6.758;2024-02-26T13:14:44;11.43;;;6.35;;
53273;SDS011;39163;52.696;6.758;2024-02-26T13:17:10;15.60;;;9.73;;
53273;SDS011;39163;52.696;6.758;2024-02-26T13:19:37;12.82;;;6.20;;
53273;SDS011;39163;52.696;6.758;2024-02-26T13:22:15;15.52;;;8.80;;
53273;SDS011;39163;52.696;6.758;2024-02-26T13:24:42;20.33;;;9.75;;
53273;SDS011;39163;52.696;6.758;2024-02-26T13:27:09;26.45;;;13.20;;
53273;SDS011;39163;52.696;6.758;2024-02-26T13:29:37;66.88;;;31.73;;
53273;SDS011;39163;52.696;6.758;2024-02-26T13:32:04;114.90;;;64.57;;
53273;SDS011;39163;52.696;6.758;2024-02-26T13:34:32;9.55;;;6.57;;
53273;SDS011;39163;52.696;6.758;2024-02-26T13:37:00;16.17;;;12.07;;
53273;SDS011;39163;52.696;6.758;2024-02-26T13:39:28;10.85;;;7.20;;
53273;SDS011;39163;52.696;6.758;2024-02-26T13:41:55;15.60;;;12.07;;
53273;SDS011;39163;52.696;6.758;2024-02-26T13:44:22;7.32;;;5.10;;
53273;SDS011;39163;52.696;6.758;2024-02-26T13:46:52;9.30;;;6.18;;
53273;SDS011;39163;52.696;6.758;2024-02-26T13:49:19;6.82;;;5.20;;
53273;SDS011;39163;52.696;6.758;2024-02-26T13:51:46;6.95;;;4.72;;
53273;SDS011;39163;52.696;6.758;2024-02-26T13:54:13;8.80;;;4.70;;
53273;SDS011;39163;52.696;6.758;2024-02-26T13:56:40;10.98;;;4.68;;
53273;SDS011;39163;52.696;6.758;2024-02-26T13:59:07;6.65;;;4.60;;
53273;SDS011;39163;52.696;6.758;2024-02-26T14:01:34;9.45;;;5.63;;
53273;SDS011;39163;52.696;6.758;2024-02-26T14:04:02;8.23;;;5.15;;
53273;SDS011;39163;52.696;6.758;2024-02-26T14:06:30;9.85;;;4.97;;
53273;SDS011;39163;52.696;6.758;2024-02-26T14:08:57;7.97;;;5.20;;
53273;SDS011;39163;52.696;6.758;2024-02-26T14:11:24;6.68;;;4.50;;
53273;SDS011;39163;52.696;6.758;2024-02-26T14:13:54;6.70;;;4.72;;
53273;SDS011;39163;52.696;6.758;2024-02-26T14:16:21;7.75;;;5.60;;
53273;SDS011;39163;52.696;6.758;2024-02-26T14:18:48;8.02;;;5.63;;
53273;SDS011;39163;52.696;6.758;2024-02-26T14:21:16;10.30;;;5.32;;
53273;SDS011;39163;52.696;6.758;2024-02-26T14:23:43;8.13;;;5.53;;
53273;SDS011;39163;52.696;6.758;2024-02-26T14:26:10;8.80;;;5.70;;
53273;SDS011;39163;52.696;6.758;2024-02-26T14:28:38;9.38;;;6.30;;
53273;SDS011;39163;52.696;6.758;2024-02-26T14:31:05;9.40;;;5.90;;
53273;SDS011;39163;52.696;6.758;2024-02-26T14:33:37;9.40;;;6.28;;
53273;SDS011;39163;52.696;6.758;2024-02-26T14:36:05;10.50;;;7.07;;